createdAt,value
2023-09-05T00:00:58.580Z,13.51
2023-09-05T00:06:01.669Z,13.50
2023-09-05T00:11:03.669Z,13.48
2023-09-05T00:16:05.865Z,13.42
2023-09-05T00:21:07.702Z,13.33
2023-09-05T00:26:09.695Z,13.34
2023-09-05T00:31:11.853Z,13.35
2023-09-05T00:36:13.724Z,13.25
2023-09-05T00:41:15.719Z,13.26
2023-09-05T00:46:17.994Z,13.25
2023-09-05T00:51:20.360Z,13.28
2023-09-05T00:56:22.427Z,13.30
2023-09-05T01:01:24.498Z,13.40
2023-09-05T01:06:38.662Z,13.48
2023-09-05T01:11:41.936Z,13.46
2023-09-05T01:16:43.855Z,13.37
2023-09-05T01:22:07.488Z,13.22
2023-09-05T01:27:09.715Z,13.16
2023-09-05T01:32:11.853Z,13.15
2023-09-05T01:37:13.943Z,13.10
2023-09-05T01:42:16.168Z,13.06
2023-09-05T01:47:18.234Z,13.00
2023-09-05T01:52:20.262Z,12.95
2023-09-05T01:57:22.374Z,12.91
2023-09-05T02:02:24.626Z,12.86
2023-09-05T02:07:26.660Z,12.74
2023-09-05T02:12:28.596Z,12.72
2023-09-05T02:17:30.852Z,12.66
2023-09-05T02:22:33.184Z,12.63
2023-09-05T02:27:35.190Z,12.63
2023-09-05T02:32:37.270Z,12.64
2023-09-05T02:37:39.455Z,12.62
2023-09-05T02:42:41.423Z,12.58
2023-09-05T02:47:43.657Z,12.58
2023-09-05T02:52:48.244Z,12.58
2023-09-05T02:57:50.978Z,12.63
2023-09-05T03:02:52.854Z,12.60
2023-09-05T03:07:56.702Z,12.66
2023-09-05T03:12:58.722Z,12.70
2023-09-05T03:18:00.869Z,12.81
2023-09-05T03:23:02.948Z,12.95
2023-09-05T03:28:05.383Z,14.95
2023-09-05T03:33:07.927Z,17.00
2023-09-05T03:38:10.083Z,18.75
2023-09-05T03:43:12.248Z,20.36
2023-09-05T03:48:14.296Z,21.56
2023-09-05T03:53:16.354Z,22.91
2023-09-05T03:58:18.327Z,24.17
2023-09-05T04:03:20.466Z,24.83
2023-09-05T04:08:22.696Z,22.01
2023-09-05T04:13:24.789Z,19.96
2023-09-05T04:18:29.771Z,18.66
2023-09-05T04:23:31.651Z,17.86
2023-09-05T04:28:33.339Z,17.02
2023-09-05T04:33:35.324Z,16.41
2023-09-05T04:38:38.193Z,16.29
2023-09-05T04:43:40.198Z,16.35
2023-09-05T04:48:42.141Z,16.20
2023-09-05T04:53:43.864Z,16.08
2023-09-05T04:58:45.782Z,16.14
2023-09-05T05:03:47.723Z,15.82
2023-09-05T05:08:49.759Z,15.84
2023-09-05T05:13:51.700Z,15.76
2023-09-05T05:18:53.652Z,16.06
2023-09-05T05:23:55.677Z,16.31
2023-09-05T05:28:57.748Z,16.47
2023-09-05T05:33:59.494Z,16.56
2023-09-05T05:39:01.498Z,18.25
2023-09-05T05:44:03.774Z,24.22
2023-09-05T05:49:05.911Z,23.72
2023-09-05T05:54:08.028Z,22.06
2023-09-05T05:59:10.017Z,20.78
2023-09-05T06:04:12.055Z,26.50
2023-09-05T06:09:14.057Z,31.74
2023-09-05T06:14:16.178Z,33.09
2023-09-05T06:19:18.254Z,35.99
2023-09-05T06:24:20.206Z,37.57
2023-09-05T06:29:22.179Z,38.14
2023-09-05T06:34:24.155Z,39.84
2023-09-05T06:39:26.130Z,39.28
2023-09-05T06:44:32.199Z,40.74
2023-09-05T06:49:34.117Z,42.05
2023-09-05T06:54:36.100Z,42.98
2023-09-05T06:59:38.043Z,43.88
2023-09-05T07:04:40.028Z,44.75
2023-09-05T07:09:42.058Z,44.62
2023-09-05T07:14:45.304Z,44.44
2023-09-05T07:19:47.633Z,45.09
2023-09-05T07:24:49.972Z,45.97
2023-09-05T07:29:51.937Z,45.66
2023-09-05T07:34:55.198Z,46.10
2023-09-05T07:39:57.171Z,47.24
2023-09-05T07:44:59.330Z,42.54
2023-09-05T07:50:01.257Z,33.46
2023-09-05T07:55:03.258Z,29.28
2023-09-05T08:00:05.743Z,27.19
2023-09-05T08:05:08.294Z,25.62
2023-09-05T08:10:10.402Z,24.74
2023-09-05T08:15:12.410Z,23.96
2023-09-05T08:20:14.359Z,23.87
2023-09-05T08:25:16.354Z,23.88
2023-09-05T08:30:18.458Z,23.73
2023-09-05T08:35:20.407Z,22.97
2023-09-05T08:40:22.369Z,22.72
2023-09-05T08:45:24.553Z,22.49
2023-09-05T08:50:26.489Z,22.46
2023-09-05T08:55:28.626Z,22.51
2023-09-05T09:00:30.534Z,22.70
2023-09-05T09:05:32.458Z,22.76
2023-09-05T09:10:34.417Z,22.34
2023-09-05T09:15:40.588Z,22.57
2023-09-05T09:20:43.926Z,22.71
2023-09-05T09:25:49.140Z,22.28
2023-09-05T09:30:58.483Z,22.42
2023-09-05T09:36:11.862Z,22.38
2023-09-05T09:41:13.894Z,22.44
2023-09-05T09:46:16.030Z,22.35
2023-09-05T09:51:18.166Z,22.30
2023-09-05T09:56:20.187Z,22.43
2023-09-05T10:01:22.297Z,21.92
2023-09-05T10:06:24.328Z,21.86
2023-09-05T10:11:26.298Z,21.86
2023-09-05T10:16:28.279Z,21.66
2023-09-05T10:21:30.370Z,21.61
2023-09-05T10:26:32.370Z,21.88
2023-09-05T10:31:34.363Z,21.87
2023-09-05T10:36:43.104Z,22.10
2023-09-05T10:41:45.243Z,22.33
2023-09-05T10:46:53.180Z,22.70
2023-09-05T10:52:17.040Z,23.08
2023-09-05T10:57:38.247Z,23.00
2023-09-05T11:02:40.478Z,22.96
2023-09-05T11:07:42.449Z,23.01
2023-09-05T11:12:44.339Z,22.93
2023-09-05T11:18:05.824Z,23.00
2023-09-05T11:23:12.231Z,22.69
2023-09-05T11:28:14.970Z,22.74
2023-09-05T11:33:17.354Z,22.66
2023-09-05T11:38:20.841Z,22.67
2023-09-05T11:43:23.024Z,22.43
2023-09-05T11:48:26.290Z,22.51
2023-09-05T11:53:28.515Z,22.49
2023-09-05T11:58:31.416Z,22.24
2023-09-05T12:03:36.832Z,21.94
2023-09-05T12:08:40.314Z,21.77
2023-09-05T12:13:43.298Z,21.78
2023-09-05T12:18:47.119Z,22.09
2023-09-05T12:23:49.691Z,22.41
2023-09-05T12:28:54.911Z,22.53
2023-09-05T12:33:56.961Z,22.35
2023-09-05T12:38:58.946Z,21.84
2023-09-05T12:44:00.933Z,21.64
2023-09-05T12:49:02.881Z,21.63
2023-09-05T12:54:05.034Z,21.90
2023-09-05T12:59:07.035Z,22.38
2023-09-05T13:04:09.046Z,22.88
2023-09-05T13:09:11.082Z,23.13
2023-09-05T13:14:13.114Z,22.92
2023-09-05T13:19:15.139Z,22.79
2023-09-05T13:24:17.034Z,22.94
2023-09-05T13:29:18.994Z,23.21
2023-09-05T13:34:21.173Z,23.48
2023-09-05T13:39:23.297Z,23.54
2023-09-05T13:44:25.576Z,23.26
2023-09-05T13:49:27.514Z,22.80
2023-09-05T13:54:29.452Z,22.44
2023-09-05T13:59:31.582Z,22.38
2023-09-05T14:04:33.759Z,22.48
2023-09-05T14:09:35.952Z,22.47
2023-09-05T14:14:39.274Z,22.47
2023-09-05T14:19:41.416Z,22.45
2023-09-05T14:24:43.610Z,22.42
2023-09-05T14:29:45.690Z,22.06
2023-09-05T14:34:47.684Z,21.58
2023-09-05T14:39:49.860Z,21.32
2023-09-05T14:44:51.875Z,21.34
2023-09-05T14:49:53.968Z,21.36
2023-09-05T14:54:56.183Z,21.32
2023-09-05T14:59:58.191Z,21.32
2023-09-05T15:05:00.128Z,21.85
2023-09-05T15:10:02.326Z,21.86
2023-09-05T15:15:06.560Z,21.49
2023-09-05T15:20:09.657Z,21.14
2023-09-05T15:25:15.731Z,20.90
2023-09-05T15:30:18.080Z,20.64
2023-09-05T15:35:20.208Z,20.42
2023-09-05T15:40:22.562Z,20.22
2023-09-05T15:45:24.679Z,20.03
2023-09-05T15:50:26.777Z,19.87
2023-09-05T15:55:28.891Z,19.73
2023-09-05T16:00:31.081Z,19.61
2023-09-05T16:05:33.283Z,19.46
2023-09-05T16:10:35.415Z,19.33
2023-09-05T16:15:37.537Z,19.22
2023-09-05T16:20:53.861Z,19.13
2023-09-05T16:25:58.317Z,19.00
2023-09-05T16:31:00.644Z,18.93
2023-09-05T16:36:04.150Z,18.88
2023-09-05T16:41:09.919Z,18.77
2023-09-05T16:46:15.411Z,18.69
2023-09-05T16:51:19.900Z,18.62
2023-09-05T16:56:21.933Z,18.53
2023-09-05T17:01:23.827Z,18.37
2023-09-05T17:06:25.870Z,18.35
2023-09-05T17:11:30.177Z,18.24
2023-09-05T17:16:33.501Z,18.21
2023-09-05T17:21:35.500Z,18.09
2023-09-05T17:26:37.597Z,18.10
2023-09-05T17:31:39.459Z,18.00
2023-09-05T17:36:41.554Z,18.06
2023-09-05T17:41:43.664Z,18.07
2023-09-05T17:46:45.693Z,18.06
2023-09-05T17:51:47.568Z,17.97
2023-09-05T17:56:49.749Z,18.02
2023-09-05T18:01:52.256Z,18.03
2023-09-05T18:06:54.366Z,18.01
2023-09-05T18:11:56.447Z,17.92
2023-09-05T18:16:58.340Z,17.95
2023-09-05T18:22:00.433Z,17.97
2023-09-05T18:27:06.933Z,17.96
2023-09-05T18:32:09.575Z,17.95
2023-09-05T18:37:11.298Z,17.86
2023-09-05T18:42:13.300Z,17.88
2023-09-05T18:47:15.409Z,17.92
2023-09-05T18:52:17.713Z,17.90
2023-09-05T18:57:19.961Z,17.88
2023-09-05T19:02:21.732Z,17.78
2023-09-05T19:07:23.817Z,17.81
2023-09-05T19:12:25.667Z,17.71
2023-09-05T19:17:27.578Z,17.75
2023-09-05T19:22:29.417Z,17.64
2023-09-05T19:27:31.498Z,17.65
2023-09-05T19:32:33.748Z,17.63
2023-09-05T19:37:36.084Z,17.59
2023-09-05T19:42:38.113Z,17.57
2023-09-05T19:47:39.969Z,17.47
2023-09-05T19:52:42.258Z,17.52
2023-09-05T19:57:44.218Z,17.41
2023-09-05T20:02:46.324Z,17.43
2023-09-05T20:07:48.442Z,17.37
2023-09-05T20:12:50.230Z,17.24
2023-09-05T20:17:52.504Z,17.25
2023-09-05T20:22:54.694Z,17.27
2023-09-05T20:27:56.799Z,17.26
2023-09-05T20:32:58.798Z,17.17
2023-09-05T20:38:00.741Z,17.20
2023-09-05T20:43:02.720Z,17.16
2023-09-05T20:48:04.816Z,17.03
2023-09-05T20:53:06.809Z,17.07
2023-09-05T20:58:08.906Z,17.06
2023-09-05T21:03:10.870Z,16.95
2023-09-05T21:08:12.959Z,16.95
2023-09-05T21:13:14.752Z,16.77
2023-09-05T21:18:16.639Z,16.79
2023-09-05T21:23:18.618Z,16.76
2023-09-05T21:28:20.531Z,16.76
2023-09-05T21:33:22.495Z,16.72
2023-09-05T21:38:24.494Z,16.69
2023-09-05T21:43:26.559Z,16.61
2023-09-05T21:48:28.634Z,16.47
2023-09-05T21:53:30.893Z,16.46
2023-09-05T21:58:32.958Z,16.42
2023-09-05T22:03:34.992Z,16.37
2023-09-05T22:08:37.140Z,16.30
2023-09-05T22:13:38.920Z,16.10
2023-09-05T22:18:41.335Z,16.07
2023-09-05T22:23:43.420Z,16.01
2023-09-05T22:28:45.467Z,15.97
2023-09-05T22:33:47.304Z,15.83
2023-09-05T22:38:49.382Z,15.82
2023-09-05T22:43:51.435Z,15.77
2023-09-05T22:48:53.558Z,15.72
2023-09-05T22:53:55.676Z,15.70
2023-09-05T22:58:57.565Z,15.60
2023-09-05T23:03:59.619Z,15.65
2023-09-05T23:09:01.456Z,15.60
2023-09-05T23:14:03.385Z,15.68
2023-09-05T23:19:05.559Z,15.70
2023-09-05T23:24:07.453Z,15.63
2023-09-05T23:29:09.471Z,15.67
2023-09-05T23:34:11.551Z,15.60
2023-09-05T23:39:13.842Z,15.53
2023-09-05T23:44:15.940Z,15.41
2023-09-05T23:49:18.035Z,15.29
2023-09-05T23:54:19.884Z,15.12
2023-09-05T23:59:21.821Z,15.09
